sensor_id;sensor_type;location;lat;lon;timestamp;temperature;humidity
35085;SHT85;21267;51.032;6.998;2023-05-29T00:01:37;16.56;70.87
35085;SHT85;21267;51.032;6.998;2023-05-29T00:04:04;16.58;70.87
35085;SHT85;21267;51.032;6.998;2023-05-29T00:06:32;16.55;71.23
35085;SHT85;21267;51.032;6.998;2023-05-29T00:09:06;16.49;71.13
35085;SHT85;21267;51.032;6.998;2023-05-29T00:11:35;16.53;71.02
35085;SHT85;21267;51.032;6.998;2023-05-29T00:14:16;16.53;70.97
35085;SHT85;21267;51.032;6.998;2023-05-29T00:16:46;16.29;71.55
35085;SHT85;21267;51.032;6.998;2023-05-29T00:19:27;16.14;71.83
35085;SHT85;21267;51.032;6.998;2023-05-29T00:21:54;16.25;71.52
35085;SHT85;21267;51.032;6.998;2023-05-29T00:24:21;16.26;71.63
35085;SHT85;21267;51.032;6.998;2023-05-29T00:26:48;15.97;72.56
35085;SHT85;21267;51.032;6.998;2023-05-29T00:29:15;15.98;72.45
35085;SHT85;21267;51.032;6.998;2023-05-29T00:31:41;16.05;72.22
35085;SHT85;21267;51.032;6.998;2023-05-29T00:34:08;16.01;72.19
35085;SHT85;21267;51.032;6.998;2023-05-29T00:36:35;15.94;72.51
35085;SHT85;21267;51.032;6.998;2023-05-29T00:39:03;16.07;72.03
35085;SHT85;21267;51.032;6.998;2023-05-29T00:41:29;15.84;72.40
35085;SHT85;21267;51.032;6.998;2023-05-29T00:43:57;15.97;72.33
35085;SHT85;21267;51.032;6.998;2023-05-29T00:46:26;15.89;72.31
35085;SHT85;21267;51.032;6.998;2023-05-29T00:48:55;15.90;72.27
35085;SHT85;21267;51.032;6.998;2023-05-29T00:51:22;15.77;72.64
35085;SHT85;21267;51.032;6.998;2023-05-29T00:53:50;15.87;72.31
35085;SHT85;21267;51.032;6.998;2023-05-29T00:56:18;15.84;72.28
35085;SHT85;21267;51.032;6.998;2023-05-29T00:58:51;15.76;72.60
35085;SHT85;21267;51.032;6.998;2023-05-29T01:01:20;15.80;72.53
35085;SHT85;21267;51.032;6.998;2023-05-29T01:03:51;15.71;72.52
35085;SHT85;21267;51.032;6.998;2023-05-29T01:06:19;15.69;72.70
35085;SHT85;21267;51.032;6.998;2023-05-29T01:08:47;15.60;72.85
35085;SHT85;21267;51.032;6.998;2023-05-29T01:17:17;15.52;72.92
35085;SHT85;21267;51.032;6.998;2023-05-29T01:23:37;15.35;73.06
35085;SHT85;21267;51.032;6.998;2023-05-29T01:28:57;15.18;73.76
35085;SHT85;21267;51.032;6.998;2023-05-29T01:31:28;15.16;73.79
35085;SHT85;21267;51.032;6.998;2023-05-29T01:33:57;15.05;73.97
35085;SHT85;21267;51.032;6.998;2023-05-29T01:36:25;15.04;73.84
35085;SHT85;21267;51.032;6.998;2023-05-29T01:38:54;14.99;73.83
35085;SHT85;21267;51.032;6.998;2023-05-29T01:41:23;14.95;73.74
35085;SHT85;21267;51.032;6.998;2023-05-29T01:43:51;14.95;73.54
35085;SHT85;21267;51.032;6.998;2023-05-29T01:46:18;14.91;73.45
35085;SHT85;21267;51.032;6.998;2023-05-29T01:48:46;14.73;73.39
35085;SHT85;21267;51.032;6.998;2023-05-29T01:51:13;14.75;72.94
35085;SHT85;21267;51.032;6.998;2023-05-29T01:53:42;14.71;72.88
35085;SHT85;21267;51.032;6.998;2023-05-29T01:56:09;14.71;72.90
35085;SHT85;21267;51.032;6.998;2023-05-29T01:58:38;14.71;72.78
35085;SHT85;21267;51.032;6.998;2023-05-29T02:01:06;14.66;72.80
35085;SHT85;21267;51.032;6.998;2023-05-29T02:03:34;14.67;73.01
35085;SHT85;21267;51.032;6.998;2023-05-29T02:06:01;14.67;72.86
35085;SHT85;21267;51.032;6.998;2023-05-29T02:08:28;14.49;73.22
35085;SHT85;21267;51.032;6.998;2023-05-29T02:10:55;14.38;73.56
35085;SHT85;21267;51.032;6.998;2023-05-29T02:13:22;14.38;73.68
35085;SHT85;21267;51.032;6.998;2023-05-29T02:15:49;14.34;73.77
35085;SHT85;21267;51.032;6.998;2023-05-29T02:18:16;14.22;74.02
35085;SHT85;21267;51.032;6.998;2023-05-29T02:20:46;14.13;74.51
35085;SHT85;21267;51.032;6.998;2023-05-29T02:23:13;14.19;74.22
35085;SHT85;21267;51.032;6.998;2023-05-29T02:25:41;14.10;74.25
35085;SHT85;21267;51.032;6.998;2023-05-29T02:28:08;14.12;74.44
35085;SHT85;21267;51.032;6.998;2023-05-29T02:30:35;14.12;74.53
35085;SHT85;21267;51.032;6.998;2023-05-29T02:33:02;13.96;74.70
35085;SHT85;21267;51.032;6.998;2023-05-29T02:35:29;14.01;74.57
35085;SHT85;21267;51.032;6.998;2023-05-29T02:37:55;14.12;74.28
35085;SHT85;21267;51.032;6.998;2023-05-29T02:40:22;13.98;74.68
35085;SHT85;21267;51.032;6.998;2023-05-29T02:42:49;13.85;74.93
35085;SHT85;21267;51.032;6.998;2023-05-29T02:45:17;13.79;75.35
35085;SHT85;21267;51.032;6.998;2023-05-29T02:47:44;13.82;75.52
35085;SHT85;21267;51.032;6.998;2023-05-29T02:50:11;13.81;75.25
35085;SHT85;21267;51.032;6.998;2023-05-29T02:52:38;13.64;75.63
35085;SHT85;21267;51.032;6.998;2023-05-29T02:55:04;13.68;75.73
35085;SHT85;21267;51.032;6.998;2023-05-29T02:57:32;13.62;76.00
35085;SHT85;21267;51.032;6.998;2023-05-29T02:59:59;13.41;76.55
35085;SHT85;21267;51.032;6.998;2023-05-29T03:02:28;13.50;76.57
35085;SHT85;21267;51.032;6.998;2023-05-29T03:04:55;13.47;76.69
35085;SHT85;21267;51.032;6.998;2023-05-29T03:07:22;13.33;76.85
35085;SHT85;21267;51.032;6.998;2023-05-29T03:09:49;13.28;77.40
35085;SHT85;21267;51.032;6.998;2023-05-29T03:12:16;13.13;77.58
35085;SHT85;21267;51.032;6.998;2023-05-29T03:14:45;13.16;77.62
35085;SHT85;21267;51.032;6.998;2023-05-29T03:17:12;13.19;77.63
35085;SHT85;21267;51.032;6.998;2023-05-29T03:19:39;13.02;78.13
35085;SHT85;21267;51.032;6.998;2023-05-29T03:22:06;13.15;77.65
35085;SHT85;21267;51.032;6.998;2023-05-29T03:24:32;13.02;78.14
35085;SHT85;21267;51.032;6.998;2023-05-29T03:27:02;12.90;78.44
35085;SHT85;21267;51.032;6.998;2023-05-29T03:29:31;13.15;78.01
35085;SHT85;21267;51.032;6.998;2023-05-29T03:31:58;13.07;77.74
35085;SHT85;21267;51.032;6.998;2023-05-29T03:34:25;13.20;77.85
35085;SHT85;21267;51.032;6.998;2023-05-29T03:36:53;12.99;78.28
35085;SHT85;21267;51.032;6.998;2023-05-29T03:39:20;13.06;78.01
35085;SHT85;21267;51.032;6.998;2023-05-29T03:41:46;12.96;78.48
35085;SHT85;21267;51.032;6.998;2023-05-29T03:44:13;12.99;78.21
35085;SHT85;21267;51.032;6.998;2023-05-29T03:46:40;12.88;78.70
35085;SHT85;21267;51.032;6.998;2023-05-29T03:49:06;12.83;78.36
35085;SHT85;21267;51.032;6.998;2023-05-29T03:51:33;12.76;78.59
35085;SHT85;21267;51.032;6.998;2023-05-29T03:54:00;12.69;78.56
35085;SHT85;21267;51.032;6.998;2023-05-29T03:56:27;12.51;79.24
35085;SHT85;21267;51.032;6.998;2023-05-29T03:58:54;12.52;79.45
35085;SHT85;21267;51.032;6.998;2023-05-29T04:01:21;12.66;78.77
35085;SHT85;21267;51.032;6.998;2023-05-29T04:03:48;12.72;78.50
35085;SHT85;21267;51.032;6.998;2023-05-29T04:06:15;12.86;78.21
35085;SHT85;21267;51.032;6.998;2023-05-29T04:08:42;12.78;78.65
35085;SHT85;21267;51.032;6.998;2023-05-29T04:11:09;12.75;78.75
35085;SHT85;21267;51.032;6.998;2023-05-29T04:13:38;12.44;79.70
35085;SHT85;21267;51.032;6.998;2023-05-29T04:16:05;12.78;78.59
35085;SHT85;21267;51.032;6.998;2023-05-29T04:18:32;12.62;78.55
35085;SHT85;21267;51.032;6.998;2023-05-29T04:21:00;12.35;80.09
35085;SHT85;21267;51.032;6.998;2023-05-29T04:23:27;12.71;79.09
35085;SHT85;21267;51.032;6.998;2023-05-29T04:25:54;12.68;79.07
35085;SHT85;21267;51.032;6.998;2023-05-29T04:28:20;12.79;78.80
35085;SHT85;21267;51.032;6.998;2023-05-29T04:30:48;12.79;78.69
35085;SHT85;21267;51.032;6.998;2023-05-29T04:33:17;12.89;78.62
35085;SHT85;21267;51.032;6.998;2023-05-29T04:35:44;12.82;78.90
35085;SHT85;21267;51.032;6.998;2023-05-29T04:38:10;12.82;78.97
35085;SHT85;21267;51.032;6.998;2023-05-29T04:40:37;12.89;78.87
35085;SHT85;21267;51.032;6.998;2023-05-29T04:43:04;12.85;78.89
35085;SHT85;21267;51.032;6.998;2023-05-29T04:45:31;13.02;78.48
35085;SHT85;21267;51.032;6.998;2023-05-29T04:47:58;12.97;78.44
35085;SHT85;21267;51.032;6.998;2023-05-29T04:50:28;12.96;78.40
35085;SHT85;21267;51.032;6.998;2023-05-29T04:52:57;13.06;78.45
35085;SHT85;21267;51.032;6.998;2023-05-29T04:55:24;13.04;78.34
35085;SHT85;21267;51.032;6.998;2023-05-29T04:57:50;13.03;78.42
35085;SHT85;21267;51.032;6.998;2023-05-29T05:00:18;12.96;78.50
35085;SHT85;21267;51.032;6.998;2023-05-29T05:02:49;12.88;78.84
35085;SHT85;21267;51.032;6.998;2023-05-29T05:05:17;13.15;78.10
35085;SHT85;21267;51.032;6.998;2023-05-29T05:07:44;13.13;78.12
35085;SHT85;21267;51.032;6.998;2023-05-29T05:10:13;13.24;77.86
35085;SHT85;21267;51.032;6.998;2023-05-29T05:12:40;13.20;78.15
35085;SHT85;21267;51.032;6.998;2023-05-29T05:15:07;13.30;77.96
35085;SHT85;21267;51.032;6.998;2023-05-29T05:17:35;13.04;78.45
35085;SHT85;21267;51.032;6.998;2023-05-29T05:20:05;13.28;78.16
35085;SHT85;21267;51.032;6.998;2023-05-29T05:22:32;13.65;77.02
35085;SHT85;21267;51.032;6.998;2023-05-29T05:24:59;13.51;77.16
35085;SHT85;21267;51.032;6.998;2023-05-29T05:27:27;13.37;77.07
35085;SHT85;21267;51.032;6.998;2023-05-29T05:29:53;13.36;77.41
35085;SHT85;21267;51.032;6.998;2023-05-29T05:32:20;13.59;76.82
35085;SHT85;21267;51.032;6.998;2023-05-29T05:34:49;13.51;76.83
35085;SHT85;21267;51.032;6.998;2023-05-29T05:37:16;13.74;76.39
35085;SHT85;21267;51.032;6.998;2023-05-29T05:39:43;13.72;75.90
35085;SHT85;21267;51.032;6.998;2023-05-29T05:42:10;13.64;76.23
35085;SHT85;21267;51.032;6.998;2023-05-29T05:44:37;13.65;76.40
35085;SHT85;21267;51.032;6.998;2023-05-29T05:47:04;13.84;75.59
35085;SHT85;21267;51.032;6.998;2023-05-29T05:49:31;13.89;75.44
35085;SHT85;21267;51.032;6.998;2023-05-29T05:51:57;13.95;74.97
35085;SHT85;21267;51.032;6.998;2023-05-29T05:54:24;14.13;74.75
35085;SHT85;21267;51.032;6.998;2023-05-29T05:56:51;13.89;75.26
35085;SHT85;21267;51.032;6.998;2023-05-29T05:59:17;13.96;75.15
35085;SHT85;21267;51.032;6.998;2023-05-29T06:01:44;14.36;74.16
35085;SHT85;21267;51.032;6.998;2023-05-29T06:04:11;14.17;74.05
35085;SHT85;21267;51.032;6.998;2023-05-29T06:06:38;14.38;73.82
35085;SHT85;21267;51.032;6.998;2023-05-29T06:09:05;14.22;74.02
35085;SHT85;21267;51.032;6.998;2023-05-29T06:11:31;14.23;74.00
35085;SHT85;21267;51.032;6.998;2023-05-29T06:13:59;14.29;74.08
35085;SHT85;21267;51.032;6.998;2023-05-29T06:16:26;14.52;73.58
35085;SHT85;21267;51.032;6.998;2023-05-29T06:18:53;14.57;73.53
35085;SHT85;21267;51.032;6.998;2023-05-29T06:21:20;14.78;72.54
35085;SHT85;21267;51.032;6.998;2023-05-29T06:23:47;14.61;73.07
35085;SHT85;21267;51.032;6.998;2023-05-29T06:26:14;14.73;73.00
35085;SHT85;21267;51.032;6.998;2023-05-29T06:28:42;14.78;72.84
35085;SHT85;21267;51.032;6.998;2023-05-29T06:33:42;14.54;73.00
35085;SHT85;21267;51.032;6.998;2023-05-29T06:36:09;14.70;72.63
35085;SHT85;21267;51.032;6.998;2023-05-29T06:38:50;15.14;71.99
35085;SHT85;21267;51.032;6.998;2023-05-29T06:41:17;15.24;71.59
35085;SHT85;21267;51.032;6.998;2023-05-29T06:43:43;15.32;71.27
35085;SHT85;21267;51.032;6.998;2023-05-29T06:46:18;15.53;71.03
35085;SHT85;21267;51.032;6.998;2023-05-29T06:48:44;15.47;70.88
35085;SHT85;21267;51.032;6.998;2023-05-29T06:51:11;15.59;71.01
35085;SHT85;21267;51.032;6.998;2023-05-29T06:53:52;15.46;71.53
35085;SHT85;21267;51.032;6.998;2023-05-29T06:56:18;15.60;71.15
35085;SHT85;21267;51.032;6.998;2023-05-29T06:58:59;15.76;70.43
35085;SHT85;21267;51.032;6.998;2023-05-29T07:01:25;15.93;70.20
35085;SHT85;21267;51.032;6.998;2023-05-29T07:04:06;15.91;70.43
35085;SHT85;21267;51.032;6.998;2023-05-29T07:06:34;15.91;70.04
35085;SHT85;21267;51.032;6.998;2023-05-29T07:09:02;16.28;69.61
35085;SHT85;21267;51.032;6.998;2023-05-29T07:11:29;16.45;68.95
35085;SHT85;21267;51.032;6.998;2023-05-29T07:13:56;16.34;68.89
35085;SHT85;21267;51.032;6.998;2023-05-29T07:16:25;16.17;68.95
35085;SHT85;21267;51.032;6.998;2023-05-29T07:18:52;16.08;69.19
35085;SHT85;21267;51.032;6.998;2023-05-29T07:21:19;16.42;68.77
35085;SHT85;21267;51.032;6.998;2023-05-29T07:23:46;16.49;68.82
35085;SHT85;21267;51.032;6.998;2023-05-29T07:26:27;16.36;68.78
35085;SHT85;21267;51.032;6.998;2023-05-29T07:28:53;16.22;69.05
35085;SHT85;21267;51.032;6.998;2023-05-29T07:31:34;16.77;68.03
35085;SHT85;21267;51.032;6.998;2023-05-29T07:34:01;16.71;68.21
35085;SHT85;21267;51.032;6.998;2023-05-29T07:36:29;16.69;68.09
35085;SHT85;21267;51.032;6.998;2023-05-29T07:38:57;16.77;68.15
35085;SHT85;21267;51.032;6.998;2023-05-29T07:41:27;17.21;67.47
35085;SHT85;21267;51.032;6.998;2023-05-29T07:43:54;17.37;66.58
35085;SHT85;21267;51.032;6.998;2023-05-29T07:46:22;17.11;66.70
35085;SHT85;21267;51.032;6.998;2023-05-29T07:48:50;17.28;67.10
35085;SHT85;21267;51.032;6.998;2023-05-29T07:51:17;17.21;67.32
35085;SHT85;21267;51.032;6.998;2023-05-29T07:53:45;17.11;67.08
35085;SHT85;21267;51.032;6.998;2023-05-29T07:56:12;17.21;66.47
35085;SHT85;21267;51.032;6.998;2023-05-29T07:58:40;17.63;65.39
35085;SHT85;21267;51.032;6.998;2023-05-29T08:01:08;17.72;65.79
35085;SHT85;21267;51.032;6.998;2023-05-29T08:03:34;17.79;65.70
35085;SHT85;21267;51.032;6.998;2023-05-29T08:06:02;17.79;65.49
35085;SHT85;21267;51.032;6.998;2023-05-29T08:08:29;17.73;65.66
35085;SHT85;21267;51.032;6.998;2023-05-29T08:10:56;18.02;65.62
35085;SHT85;21267;51.032;6.998;2023-05-29T08:13:23;18.51;63.76
35085;SHT85;21267;51.032;6.998;2023-05-29T08:15:50;19.09;62.22
35085;SHT85;21267;51.032;6.998;2023-05-29T08:18:17;19.40;62.12
35085;SHT85;21267;51.032;6.998;2023-05-29T08:20:43;19.57;60.74
35085;SHT85;21267;51.032;6.998;2023-05-29T08:23:11;19.45;61.48
35085;SHT85;21267;51.032;6.998;2023-05-29T08:25:38;20.02;59.14
35085;SHT85;21267;51.032;6.998;2023-05-29T08:28:04;20.55;58.40
35085;SHT85;21267;51.032;6.998;2023-05-29T08:30:31;20.46;58.59
35085;SHT85;21267;51.032;6.998;2023-05-29T08:32:58;20.67;58.54
35085;SHT85;21267;51.032;6.998;2023-05-29T08:35:25;20.50;58.17
35085;SHT85;21267;51.032;6.998;2023-05-29T08:37:52;20.52;58.22
35085;SHT85;21267;51.032;6.998;2023-05-29T08:40:19;20.50;59.32
35085;SHT85;21267;51.032;6.998;2023-05-29T08:43:10;20.83;57.57
35085;SHT85;21267;51.032;6.998;2023-05-29T08:45:42;21.07;57.20
35085;SHT85;21267;51.032;6.998;2023-05-29T08:48:11;20.72;57.55
35085;SHT85;21267;51.032;6.998;2023-05-29T08:50:43;20.90;58.02
35085;SHT85;21267;51.032;6.998;2023-05-29T08:53:14;21.30;57.54
35085;SHT85;21267;51.032;6.998;2023-05-29T08:55:49;21.04;56.96
35085;SHT85;21267;51.032;6.998;2023-05-29T08:58:20;20.33;58.85
35085;SHT85;21267;51.032;6.998;2023-05-29T09:00:50;20.70;58.08
35085;SHT85;21267;51.032;6.998;2023-05-29T09:03:18;21.01;58.41
35085;SHT85;21267;51.032;6.998;2023-05-29T09:05:47;21.68;55.62
35085;SHT85;21267;51.032;6.998;2023-05-29T09:08:15;21.62;56.50
35085;SHT85;21267;51.032;6.998;2023-05-29T09:10:43;21.71;56.14
35085;SHT85;21267;51.032;6.998;2023-05-29T09:13:11;22.10;55.43
35085;SHT85;21267;51.032;6.998;2023-05-29T09:15:38;21.56;55.88
35085;SHT85;21267;51.032;6.998;2023-05-29T09:18:07;21.86;56.07
35085;SHT85;21267;51.032;6.998;2023-05-29T09:20:35;21.96;55.72
35085;SHT85;21267;51.032;6.998;2023-05-29T09:23:04;21.42;56.37
35085;SHT85;21267;51.032;6.998;2023-05-29T09:25:33;21.49;56.37
35085;SHT85;21267;51.032;6.998;2023-05-29T09:28:05;22.63;54.80
35085;SHT85;21267;51.032;6.998;2023-05-29T09:33:04;22.84;54.21
35085;SHT85;21267;51.032;6.998;2023-05-29T09:35:33;22.36;54.11
35085;SHT85;21267;51.032;6.998;2023-05-29T09:38:00;22.70;53.99
35085;SHT85;21267;51.032;6.998;2023-05-29T09:40:35;22.32;54.47
35085;SHT85;21267;51.032;6.998;2023-05-29T09:43:03;21.03;57.20
35085;SHT85;21267;51.032;6.998;2023-05-29T09:45:31;22.88;53.99
35085;SHT85;21267;51.032;6.998;2023-05-29T09:47:59;23.15;53.48
35085;SHT85;21267;51.032;6.998;2023-05-29T09:50:29;22.71;53.83
35085;SHT85;21267;51.032;6.998;2023-05-29T09:52:56;22.91;53.99
35085;SHT85;21267;51.032;6.998;2023-05-29T09:55:25;23.01;53.39
35085;SHT85;21267;51.032;6.998;2023-05-29T09:57:53;22.84;53.63
35085;SHT85;21267;51.032;6.998;2023-05-29T10:00:21;22.94;53.56
35085;SHT85;21267;51.032;6.998;2023-05-29T10:02:48;23.15;53.97
35085;SHT85;21267;51.032;6.998;2023-05-29T10:05:15;23.77;52.62
35085;SHT85;21267;51.032;6.998;2023-05-29T10:07:44;23.15;52.91
35085;SHT85;21267;51.032;6.998;2023-05-29T10:10:16;22.37;54.19
35085;SHT85;21267;51.032;6.998;2023-05-29T10:12:48;22.72;53.93
35085;SHT85;21267;51.032;6.998;2023-05-29T10:15:16;22.61;54.54
35085;SHT85;21267;51.032;6.998;2023-05-29T10:20:22;23.43;52.63
35085;SHT85;21267;51.032;6.998;2023-05-29T10:22:51;23.38;53.04
35085;SHT85;21267;51.032;6.998;2023-05-29T10:25:20;22.16;54.55
35085;SHT85;21267;51.032;6.998;2023-05-29T10:27:48;22.03;55.16
35085;SHT85;21267;51.032;6.998;2023-05-29T10:30:21;21.95;54.91
35085;SHT85;21267;51.032;6.998;2023-05-29T10:33:14;22.50;53.87
35085;SHT85;21267;51.032;6.998;2023-05-29T10:35:55;22.78;53.72
35085;SHT85;21267;51.032;6.998;2023-05-29T10:38:26;23.58;52.31
35085;SHT85;21267;51.032;6.998;2023-05-29T10:40:53;23.80;52.15
35085;SHT85;21267;51.032;6.998;2023-05-29T10:43:33;24.45;51.36
35085;SHT85;21267;51.032;6.998;2023-05-29T10:46:01;23.35;52.42
35085;SHT85;21267;51.032;6.998;2023-05-29T10:48:41;24.04;51.84
35085;SHT85;21267;51.032;6.998;2023-05-29T10:51:10;23.81;52.24
35085;SHT85;21267;51.032;6.998;2023-05-29T10:53:50;23.08;52.58
35085;SHT85;21267;51.032;6.998;2023-05-29T10:56:23;23.84;52.23
35085;SHT85;21267;51.032;6.998;2023-05-29T10:58:54;24.24;51.41
35085;SHT85;21267;51.032;6.998;2023-05-29T11:01:23;23.16;53.25
35085;SHT85;21267;51.032;6.998;2023-05-29T11:03:50;24.38;50.93
35085;SHT85;21267;51.032;6.998;2023-05-29T11:06:20;23.28;52.84
35085;SHT85;21267;51.032;6.998;2023-05-29T11:08:53;23.52;52.73
35085;SHT85;21267;51.032;6.998;2023-05-29T11:11:33;23.14;53.23
35085;SHT85;21267;51.032;6.998;2023-05-29T11:14:06;23.26;54.08
35085;SHT85;21267;51.032;6.998;2023-05-29T11:19:08;24.14;50.89
35085;SHT85;21267;51.032;6.998;2023-05-29T11:22:00;23.60;52.49
35085;SHT85;21267;51.032;6.998;2023-05-29T11:24:33;24.13;51.54
35085;SHT85;21267;51.032;6.998;2023-05-29T11:26:59;24.37;50.85
35085;SHT85;21267;51.032;6.998;2023-05-29T11:29:31;25.15;50.00
35085;SHT85;21267;51.032;6.998;2023-05-29T11:32:02;24.90;50.18
35085;SHT85;21267;51.032;6.998;2023-05-29T11:34:30;24.64;49.85
35085;SHT85;21267;51.032;6.998;2023-05-29T11:37:01;25.30;49.17
35085;SHT85;21267;51.032;6.998;2023-05-29T11:39:29;25.06;49.68
35085;SHT85;21267;51.032;6.998;2023-05-29T11:41:57;25.47;48.48
35085;SHT85;21267;51.032;6.998;2023-05-29T11:44:24;24.97;49.56
35085;SHT85;21267;51.032;6.998;2023-05-29T11:47:02;25.19;49.55
35085;SHT85;21267;51.032;6.998;2023-05-29T11:49:33;25.73;48.31
35085;SHT85;21267;51.032;6.998;2023-05-29T11:52:11;23.32;53.35
35085;SHT85;21267;51.032;6.998;2023-05-29T11:54:41;24.62;50.50
35085;SHT85;21267;51.032;6.998;2023-05-29T11:57:18;25.06;49.79
35085;SHT85;21267;51.032;6.998;2023-05-29T11:59:45;25.33;48.56
35085;SHT85;21267;51.032;6.998;2023-05-29T12:02:12;25.53;48.04
35085;SHT85;21267;51.032;6.998;2023-05-29T12:04:38;25.48;47.84
35085;SHT85;21267;51.032;6.998;2023-05-29T12:07:19;25.80;47.65
35085;SHT85;21267;51.032;6.998;2023-05-29T12:09:46;25.71;47.81
35085;SHT85;21267;51.032;6.998;2023-05-29T12:12:15;25.20;48.11
35085;SHT85;21267;51.032;6.998;2023-05-29T12:14:41;25.36;48.46
35085;SHT85;21267;51.032;6.998;2023-05-29T12:17:08;25.30;47.97
35085;SHT85;21267;51.032;6.998;2023-05-29T12:19:35;25.60;47.75
35085;SHT85;21267;51.032;6.998;2023-05-29T12:22:02;25.68;47.32
35085;SHT85;21267;51.032;6.998;2023-05-29T12:24:29;25.40;47.68
35085;SHT85;21267;51.032;6.998;2023-05-29T12:27:08;24.78;48.43
35085;SHT85;21267;51.032;6.998;2023-05-29T12:29:36;23.66;50.28
35085;SHT85;21267;51.032;6.998;2023-05-29T12:32:03;24.75;48.90
35085;SHT85;21267;51.032;6.998;2023-05-29T12:34:34;24.99;48.14
35085;SHT85;21267;51.032;6.998;2023-05-29T12:37:10;24.62;48.43
35085;SHT85;21267;51.032;6.998;2023-05-29T12:39:40;26.12;46.42
35085;SHT85;21267;51.032;6.998;2023-05-29T12:42:07;25.47;47.96
35085;SHT85;21267;51.032;6.998;2023-05-29T12:44:37;25.30;47.59
35085;SHT85;21267;51.032;6.998;2023-05-29T12:47:04;25.45;47.54
35085;SHT85;21267;51.032;6.998;2023-05-29T12:49:35;26.02;47.48
35085;SHT85;21267;51.032;6.998;2023-05-29T12:52:06;25.15;47.88
35085;SHT85;21267;51.032;6.998;2023-05-29T12:54:38;25.57;47.39
35085;SHT85;21267;51.032;6.998;2023-05-29T12:57:05;25.27;47.83
35085;SHT85;21267;51.032;6.998;2023-05-29T12:59:32;23.80;50.49
35085;SHT85;21267;51.032;6.998;2023-05-29T13:01:59;24.79;49.21
35085;SHT85;21267;51.032;6.998;2023-05-29T13:04:26;25.24;47.50
35085;SHT85;21267;51.032;6.998;2023-05-29T13:06:53;25.02;47.97
35085;SHT85;21267;51.032;6.998;2023-05-29T13:09:19;25.33;47.13
35085;SHT85;21267;51.032;6.998;2023-05-29T13:11:50;24.78;47.56
35085;SHT85;21267;51.032;6.998;2023-05-29T13:14:17;25.22;47.21
35085;SHT85;21267;51.032;6.998;2023-05-29T13:16:43;25.36;47.85
35085;SHT85;21267;51.032;6.998;2023-05-29T13:19:10;25.28;47.07
35085;SHT85;21267;51.032;6.998;2023-05-29T13:21:38;25.03;47.62
35085;SHT85;21267;51.032;6.998;2023-05-29T13:24:05;25.00;48.36
35085;SHT85;21267;51.032;6.998;2023-05-29T13:26:32;24.97;48.46
35085;SHT85;21267;51.032;6.998;2023-05-29T13:28:58;26.23;46.10
35085;SHT85;21267;51.032;6.998;2023-05-29T13:31:25;26.12;45.86
35085;SHT85;21267;51.032;6.998;2023-05-29T13:33:52;25.68;46.91
35085;SHT85;21267;51.032;6.998;2023-05-29T13:36:18;25.78;46.75
35085;SHT85;21267;51.032;6.998;2023-05-29T13:38:45;26.42;45.89
35085;SHT85;21267;51.032;6.998;2023-05-29T13:41:12;25.48;47.04
35085;SHT85;21267;51.032;6.998;2023-05-29T13:43:39;25.23;46.89
35085;SHT85;21267;51.032;6.998;2023-05-29T13:46:11;24.82;47.57
35085;SHT85;21267;51.032;6.998;2023-05-29T13:48:38;25.38;47.97
35085;SHT85;21267;51.032;6.998;2023-05-29T13:51:05;24.66;48.31
35085;SHT85;21267;51.032;6.998;2023-05-29T13:53:32;25.06;47.19
35085;SHT85;21267;51.032;6.998;2023-05-29T13:55:59;25.55;47.06
35085;SHT85;21267;51.032;6.998;2023-05-29T13:58:26;26.06;46.64
35085;SHT85;21267;51.032;6.998;2023-05-29T14:00:53;25.16;47.49
35085;SHT85;21267;51.032;6.998;2023-05-29T14:03:22;24.59;48.49
35085;SHT85;21267;51.032;6.998;2023-05-29T14:05:51;25.71;46.63
35085;SHT85;21267;51.032;6.998;2023-05-29T14:08:19;25.41;46.56
35085;SHT85;21267;51.032;6.998;2023-05-29T14:10:47;25.77;46.33
35085;SHT85;21267;51.032;6.998;2023-05-29T14:13:14;26.02;46.52
35085;SHT85;21267;51.032;6.998;2023-05-29T14:15:41;25.03;46.57
35085;SHT85;21267;51.032;6.998;2023-05-29T14:18:09;24.02;48.24
35085;SHT85;21267;51.032;6.998;2023-05-29T14:20:37;23.60;49.95
35085;SHT85;21267;51.032;6.998;2023-05-29T14:23:03;24.65;48.68
35085;SHT85;21267;51.032;6.998;2023-05-29T14:25:31;24.82;48.72
35085;SHT85;21267;51.032;6.998;2023-05-29T14:27:58;25.06;48.12
35085;SHT85;21267;51.032;6.998;2023-05-29T14:30:26;25.53;46.45
35085;SHT85;21267;51.032;6.998;2023-05-29T14:32:55;25.04;47.11
35085;SHT85;21267;51.032;6.998;2023-05-29T14:35:22;25.40;46.66
35085;SHT85;21267;51.032;6.998;2023-05-29T14:37:49;24.99;46.55
35085;SHT85;21267;51.032;6.998;2023-05-29T14:40:16;24.47;47.37
35085;SHT85;21267;51.032;6.998;2023-05-29T14:42:44;24.24;49.28
35085;SHT85;21267;51.032;6.998;2023-05-29T14:45:14;24.90;47.93
35085;SHT85;21267;51.032;6.998;2023-05-29T14:47:41;24.92;48.14
35085;SHT85;21267;51.032;6.998;2023-05-29T14:50:08;24.73;47.90
35085;SHT85;21267;51.032;6.998;2023-05-29T14:52:35;24.87;47.62
35085;SHT85;21267;51.032;6.998;2023-05-29T14:55:03;25.22;47.02
35085;SHT85;21267;51.032;6.998;2023-05-29T14:57:32;25.28;47.24
35085;SHT85;21267;51.032;6.998;2023-05-29T15:00:01;24.93;48.08
35085;SHT85;21267;51.032;6.998;2023-05-29T15:02:28;25.19;48.10
35085;SHT85;21267;51.032;6.998;2023-05-29T15:04:55;25.30;47.39
35085;SHT85;21267;51.032;6.998;2023-05-29T15:07:22;25.04;47.28
35085;SHT85;21267;51.032;6.998;2023-05-29T15:09:49;24.78;47.87
35085;SHT85;21267;51.032;6.998;2023-05-29T15:12:15;25.10;47.00
35085;SHT85;21267;51.032;6.998;2023-05-29T15:14:42;24.97;47.56
35085;SHT85;21267;51.032;6.998;2023-05-29T15:17:09;24.79;48.39
35085;SHT85;21267;51.032;6.998;2023-05-29T15:19:36;24.90;47.40
35085;SHT85;21267;51.032;6.998;2023-05-29T15:22:02;24.39;48.52
35085;SHT85;21267;51.032;6.998;2023-05-29T15:24:29;24.13;48.50
35085;SHT85;21267;51.032;6.998;2023-05-29T15:26:56;24.11;48.84
35085;SHT85;21267;51.032;6.998;2023-05-29T15:29:25;23.76;49.15
35085;SHT85;21267;51.032;6.998;2023-05-29T15:31:52;23.16;50.49
35085;SHT85;21267;51.032;6.998;2023-05-29T15:34:19;22.82;50.65
35085;SHT85;21267;51.032;6.998;2023-05-29T15:36:46;23.76;49.42
35085;SHT85;21267;51.032;6.998;2023-05-29T15:39:12;23.47;49.50
35085;SHT85;21267;51.032;6.998;2023-05-29T15:41:40;23.71;49.08
35085;SHT85;21267;51.032;6.998;2023-05-29T15:44:06;23.80;49.01
35085;SHT85;21267;51.032;6.998;2023-05-29T15:46:33;23.96;48.82
35085;SHT85;21267;51.032;6.998;2023-05-29T15:49:00;24.20;48.85
35085;SHT85;21267;51.032;6.998;2023-05-29T15:51:27;23.66;49.43
35085;SHT85;21267;51.032;6.998;2023-05-29T15:53:54;23.63;49.66
35085;SHT85;21267;51.032;6.998;2023-05-29T15:56:23;23.86;49.15
35085;SHT85;21267;51.032;6.998;2023-05-29T15:58:53;23.86;48.87
35085;SHT85;21267;51.032;6.998;2023-05-29T16:01:20;23.86;49.10